sensor_id;sensor_type;location;lat;lon;timestamp;pressure;altitude;pressure_sealevel;temperature;humidity
41573;BME280;27286;47.870;19.006;2023-03-23T00:01:27;99153.34;;;3.11;100.00
41573;BME280;27286;47.870;19.006;2023-03-23T00:03:55;99158.50;;;3.10;100.00
41573;BME280;27286;47.870;19.006;2023-03-23T00:06:26;99158.50;;;3.10;100.00
41573;BME280;27286;47.870;19.006;2023-03-23T00:08:54;99156.91;;;3.04;100.00
41573;BME280;27286;47.870;19.006;2023-03-23T00:11:26;99155.25;;;2.98;100.00
41573;BME280;27286;47.870;19.006;2023-03-23T00:13:54;99152.78;;;2.92;100.00
41573;BME280;27286;47.870;19.006;2023-03-23T00:16:24;99151.16;;;2.85;100.00
41573;BME280;27286;47.870;19.006;2023-03-23T00:19:05;99152.97;;;2.79;100.00
41573;BME280;27286;47.870;19.006;2023-03-23T00:21:33;99155.63;;;2.74;99.92
41573;BME280;27286;47.870;19.006;2023-03-23T00:24:08;99148.75;;;2.75;99.75
41573;BME280;27286;47.870;19.006;2023-03-23T00:26:36;99147.13;;;2.69;99.96
41573;BME280;27286;47.870;19.006;2023-03-23T00:29:07;99134.44;;;2.57;100.00
41573;BME280;27286;47.870;19.006;2023-03-23T00:31:33;99144.56;;;2.66;100.00
41573;BME280;27286;47.870;19.006;2023-03-23T00:34:02;99151.38;;;2.71;100.00
41573;BME280;27286;47.870;19.006;2023-03-23T00:36:32;99147.06;;;2.74;100.00
41573;BME280;27286;47.870;19.006;2023-03-23T00:39:01;99139.31;;;2.75;100.00
41573;BME280;27286;47.870;19.006;2023-03-23T00:41:27;99141.03;;;2.76;100.00
41573;BME280;27286;47.870;19.006;2023-03-23T00:43:57;99146.25;;;2.70;100.00
41573;BME280;27286;47.870;19.006;2023-03-23T00:46:23;99143.72;;;2.65;100.00
41573;BME280;27286;47.870;19.006;2023-03-23T00:48:50;99136.97;;;2.60;100.00
41573;BME280;27286;47.870;19.006;2023-03-23T00:51:19;99139.66;;;2.51;100.00
41573;BME280;27286;47.870;19.006;2023-03-23T00:53:45;99141.47;;;2.44;100.00
41573;BME280;27286;47.870;19.006;2023-03-23T00:56:11;99147.53;;;2.38;100.00
41573;BME280;27286;47.870;19.006;2023-03-23T00:58:36;99139.00;;;2.36;100.00
41573;BME280;27286;47.870;19.006;2023-03-23T01:01:02;99134.72;;;2.34;100.00
41573;BME280;27286;47.870;19.006;2023-03-23T01:03:28;99139.88;;;2.34;100.00
41573;BME280;27286;47.870;19.006;2023-03-23T01:05:54;99139.88;;;2.34;100.00
41573;BME280;27286;47.870;19.006;2023-03-23T01:08:21;99134.72;;;2.34;100.00
41573;BME280;27286;47.870;19.006;2023-03-23T01:10:47;99132.94;;;2.40;100.00
41573;BME280;27286;47.870;19.006;2023-03-23T01:13:14;99135.56;;;2.37;100.00
41573;BME280;27286;47.870;19.006;2023-03-23T01:15:40;99127.03;;;2.32;100.00
41573;BME280;27286;47.870;19.006;2023-03-23T01:18:05;99122.84;;;2.27;100.00
41573;BME280;27286;47.870;19.006;2023-03-23T01:20:31;99126.38;;;2.20;100.00
41573;BME280;27286;47.870;19.006;2023-03-23T01:22:58;99124.69;;;2.19;100.00
41573;BME280;27286;47.870;19.006;2023-03-23T01:25:26;99119.56;;;2.14;100.00
41573;BME280;27286;47.870;19.006;2023-03-23T01:27:53;99127.31;;;2.11;100.00
41573;BME280;27286;47.870;19.006;2023-03-23T01:30:18;99131.66;;;2.07;100.00
41573;BME280;27286;47.870;19.006;2023-03-23T01:32:43;99129.97;;;2.05;100.00
41573;BME280;27286;47.870;19.006;2023-03-23T01:35:09;99127.38;;;2.08;100.00
41573;BME280;27286;47.870;19.006;2023-03-23T01:37:35;99131.69;;;2.04;100.00
41573;BME280;27286;47.870;19.006;2023-03-23T01:40:02;99140.28;;;2.00;100.00
41573;BME280;27286;47.870;19.006;2023-03-23T01:42:34;99121.44;;;2.04;100.00
41573;BME280;27286;47.870;19.006;2023-03-23T01:47:52;99127.44;;;2.03;100.00
41573;BME280;27286;47.870;19.006;2023-03-23T01:50:19;99120.56;;;2.04;100.00
41573;BME280;27286;47.870;19.006;2023-03-23T01:52:48;99124.78;;;2.08;100.00
41573;BME280;27286;47.870;19.006;2023-03-23T01:55:14;99120.56;;;2.05;100.00
41573;BME280;27286;47.870;19.006;2023-03-23T01:57:41;99118.78;;;2.09;100.00
41573;BME280;27286;47.870;19.006;2023-03-23T02:00:07;99119.53;;;2.17;100.00
41573;BME280;27286;47.870;19.006;2023-03-23T02:02:43;99121.19;;;2.23;100.00
41573;BME280;27286;47.870;19.006;2023-03-23T02:05:16;99114.34;;;2.22;100.00
41573;BME280;27286;47.870;19.006;2023-03-23T02:07:45;99118.78;;;2.10;100.00
41573;BME280;27286;47.870;19.006;2023-03-23T02:10:11;99117.19;;;2.02;100.00
41573;BME280;27286;47.870;19.006;2023-03-23T02:12:36;99114.69;;;1.94;100.00
41573;BME280;27286;47.870;19.006;2023-03-23T02:15:02;99119.06;;;1.88;100.00
41573;BME280;27286;47.870;19.006;2023-03-23T02:23:01;99127.63;;;1.84;100.00
41573;BME280;27286;47.870;19.006;2023-03-23T02:37:18;99125.75;;;1.98;100.00
41573;BME280;27286;47.870;19.006;2023-03-23T02:39:56;99122.34;;;1.97;100.00
41573;BME280;27286;47.870;19.006;2023-03-23T02:42:26;99130.94;;;1.95;100.00
41573;BME280;27286;47.870;19.006;2023-03-23T02:44:55;99133.47;;;1.98;100.00
41573;BME280;27286;47.870;19.006;2023-03-23T02:47:25;99135.19;;;1.96;100.00
41573;BME280;27286;47.870;19.006;2023-03-23T02:49:54;99135.19;;;1.97;100.00
41573;BME280;27286;47.870;19.006;2023-03-23T02:52:24;99127.44;;;2.00;100.00
41573;BME280;27286;47.870;19.006;2023-03-23T02:54:52;99126.59;;;2.00;100.00
41573;BME280;27286;47.870;19.006;2023-03-23T02:57:20;99131.72;;;2.00;100.00
41573;BME280;27286;47.870;19.006;2023-03-23T02:59:46;99130.09;;;1.93;100.00
41573;BME280;27286;47.870;19.006;2023-03-23T03:02:16;99129.31;;;1.85;100.00
41573;BME280;27286;47.870;19.006;2023-03-23T03:04:49;99133.66;;;1.81;100.00
41573;BME280;27286;47.870;19.006;2023-03-23T03:10:25;99127.69;;;1.79;100.00
41573;BME280;27286;47.870;19.006;2023-03-23T03:15:42;99131.22;;;1.67;100.00
41573;BME280;27286;47.870;19.006;2023-03-23T03:18:10;99136.44;;;1.61;100.00
41573;BME280;27286;47.870;19.006;2023-03-23T03:20:46;99129.63;;;1.57;100.00
41573;BME280;27286;47.870;19.006;2023-03-23T03:23:14;99132.31;;;1.45;100.00
41573;BME280;27286;47.870;19.006;2023-03-23T03:25:41;99135.72;;;1.45;100.00
41573;BME280;27286;47.870;19.006;2023-03-23T03:28:18;99138.22;;;1.53;100.00
41573;BME280;27286;47.870;19.006;2023-03-23T03:30:47;99133.09;;;1.53;100.00
41573;BME280;27286;47.870;19.006;2023-03-23T03:33:15;99140.72;;;1.59;100.00
41573;BME280;27286;47.870;19.006;2023-03-23T03:35:43;99142.44;;;1.59;100.00
41573;BME280;27286;47.870;19.006;2023-03-23T03:38:10;99128.03;;;1.44;100.00
41573;BME280;27286;47.870;19.006;2023-03-23T03:40:37;99147.63;;;1.51;100.00
41573;BME280;27286;47.870;19.006;2023-03-23T03:43:04;99144.25;;;1.47;100.00
41573;BME280;27286;47.870;19.006;2023-03-23T03:45:29;99152.84;;;1.45;100.00
41573;BME280;27286;47.870;19.006;2023-03-23T03:47:55;99155.41;;;1.43;100.00
41573;BME280;27286;47.870;19.006;2023-03-23T03:50:21;99145.97;;;1.45;100.00
41573;BME280;27286;47.870;19.006;2023-03-23T03:52:46;99153.66;;;1.48;100.00
41573;BME280;27286;47.870;19.006;2023-03-23T03:55:12;99150.19;;;1.54;100.00
41573;BME280;27286;47.870;19.006;2023-03-23T03:57:38;99148.47;;;1.56;100.00
41573;BME280;27286;47.870;19.006;2023-03-23T04:00:05;99148.50;;;1.53;100.00
41573;BME280;27286;47.870;19.006;2023-03-23T04:02:42;99148.47;;;1.55;100.00
41573;BME280;27286;47.870;19.006;2023-03-23T04:05:08;99151.06;;;1.52;100.00
41573;BME280;27286;47.870;19.006;2023-03-23T04:07:35;99150.22;;;1.49;100.00
41573;BME280;27286;47.870;19.006;2023-03-23T04:10:05;99156.25;;;1.44;100.00
41573;BME280;27286;47.870;19.006;2023-03-23T04:12:31;99146.91;;;1.38;100.00
41573;BME280;27286;47.870;19.006;2023-03-23T04:14:57;99146.94;;;1.34;100.00
41573;BME280;27286;47.870;19.006;2023-03-23T04:17:23;99146.09;;;1.35;100.00
41573;BME280;27286;47.870;19.006;2023-03-23T04:19:51;99146.94;;;1.37;100.00
41573;BME280;27286;47.870;19.006;2023-03-23T04:22:17;99149.47;;;1.38;100.00
41573;BME280;27286;47.870;19.006;2023-03-23T04:24:42;99150.34;;;1.34;100.00
41573;BME280;27286;47.870;19.006;2023-03-23T04:27:08;99152.91;;;1.34;100.00
41573;BME280;27286;47.870;19.006;2023-03-23T04:29:33;99156.34;;;1.32;100.00
41573;BME280;27286;47.870;19.006;2023-03-23T04:31:59;99149.53;;;1.29;100.00
41573;BME280;27286;47.870;19.006;2023-03-23T04:34:27;99153.81;;;1.29;100.00
41573;BME280;27286;47.870;19.006;2023-03-23T04:36:52;99148.75;;;1.24;100.00
41573;BME280;27286;47.870;19.006;2023-03-23T04:39:18;99140.22;;;1.17;100.00
41573;BME280;27286;47.870;19.006;2023-03-23T04:41:44;99147.94;;;1.16;100.00
41573;BME280;27286;47.870;19.006;2023-03-23T04:44:11;99154.78;;;1.15;100.00
41573;BME280;27286;47.870;19.006;2023-03-23T04:46:43;99150.50;;;1.17;100.00
41573;BME280;27286;47.870;19.006;2023-03-23T04:49:10;99147.06;;;1.20;100.00
41573;BME280;27286;47.870;19.006;2023-03-23T04:51:36;99151.31;;;1.24;100.00
41573;BME280;27286;47.870;19.006;2023-03-23T04:54:04;99144.41;;;1.29;100.00
41573;BME280;27286;47.870;19.006;2023-03-23T04:56:29;99144.38;;;1.32;100.00
41573;BME280;27286;47.870;19.006;2023-03-23T04:58:55;99151.25;;;1.30;100.00
41573;BME280;27286;47.870;19.006;2023-03-23T05:01:20;99144.38;;;1.34;100.00
41573;BME280;27286;47.870;19.006;2023-03-23T05:03:46;99140.94;;;1.38;100.00
41573;BME280;27286;47.870;19.006;2023-03-23T05:06:11;99142.63;;;1.39;100.00
41573;BME280;27286;47.870;19.006;2023-03-23T05:08:37;99138.22;;;1.50;100.00
41573;BME280;27286;47.870;19.006;2023-03-23T05:11:04;99139.84;;;1.60;100.00
41573;BME280;27286;47.870;19.006;2023-03-23T05:13:30;99144.94;;;1.65;100.00
41573;BME280;27286;47.870;19.006;2023-03-23T05:15:56;99145.78;;;1.67;100.00
41573;BME280;27286;47.870;19.006;2023-03-23T05:18:22;99137.22;;;1.66;100.00
41573;BME280;27286;47.870;19.006;2023-03-23T05:20:47;99141.47;;;1.70;100.00
41573;BME280;27286;47.870;19.006;2023-03-23T05:23:14;99144.84;;;1.75;100.00
41573;BME280;27286;47.870;19.006;2023-03-23T05:25:39;99144.75;;;1.81;100.00
41573;BME280;27286;47.870;19.006;2023-03-23T05:28:11;99148.13;;;1.88;100.00
41573;BME280;27286;47.870;19.006;2023-03-23T05:30:38;99143.75;;;1.96;100.00
41573;BME280;27286;47.870;19.006;2023-03-23T05:33:04;99147.94;;;2.06;100.00
41573;BME280;27286;47.870;19.006;2023-03-23T05:35:30;99153.75;;;2.18;100.00
41573;BME280;27286;47.870;19.006;2023-03-23T05:37:56;99150.22;;;2.29;100.00
41573;BME280;27286;47.870;19.006;2023-03-23T05:40:25;99154.38;;;2.39;100.00
41573;BME280;27286;47.870;19.006;2023-03-23T05:42:52;99155.91;;;2.51;100.00
41573;BME280;27286;47.870;19.006;2023-03-23T05:45:18;99155.72;;;2.65;100.00
41573;BME280;27286;47.870;19.006;2023-03-23T05:47:44;99158.16;;;2.76;100.00
41573;BME280;27286;47.870;19.006;2023-03-23T05:50:11;99158.78;;;2.91;100.00
41573;BME280;27286;47.870;19.006;2023-03-23T05:52:38;99159.50;;;3.03;100.00
41573;BME280;27286;47.870;19.006;2023-03-23T05:55:04;99154.94;;;3.18;100.00
41573;BME280;27286;47.870;19.006;2023-03-23T05:57:30;99153.91;;;3.30;100.00
41573;BME280;27286;47.870;19.006;2023-03-23T05:59:56;99160.59;;;3.40;100.00
41573;BME280;27286;47.870;19.006;2023-03-23T06:02:23;99157.84;;;3.49;100.00
41573;BME280;27286;47.870;19.006;2023-03-23T06:04:49;99156.81;;;3.61;100.00
41573;BME280;27286;47.870;19.006;2023-03-23T06:07:15;99159.19;;;3.72;99.69
41573;BME280;27286;47.870;19.006;2023-03-23T06:09:40;99161.53;;;3.84;99.33
41573;BME280;27286;47.870;19.006;2023-03-23T06:12:07;99152.72;;;3.96;98.47
41573;BME280;27286;47.870;19.006;2023-03-23T06:14:33;99149.97;;;4.06;98.00
41573;BME280;27286;47.870;19.006;2023-03-23T06:16:58;99148.75;;;4.24;97.40
41573;BME280;27286;47.870;19.006;2023-03-23T06:19:24;99155.22;;;4.43;97.06
41573;BME280;27286;47.870;19.006;2023-03-23T06:21:52;99155.59;;;4.65;95.93
41573;BME280;27286;47.870;19.006;2023-03-23T06:24:17;99150.75;;;4.90;95.16
41573;BME280;27286;47.870;19.006;2023-03-23T06:26:43;99156.09;;;5.18;93.76
41573;BME280;27286;47.870;19.006;2023-03-23T06:29:09;99162.38;;;5.43;93.13
41573;BME280;27286;47.870;19.006;2023-03-23T06:31:48;99160.72;;;5.75;91.69
41573;BME280;27286;47.870;19.006;2023-03-23T06:34:16;99155.50;;;6.11;90.64
41573;BME280;27286;47.870;19.006;2023-03-23T06:36:42;99155.38;;;6.45;89.49
41573;BME280;27286;47.870;19.006;2023-03-23T06:39:10;99149.00;;;6.84;88.73
41573;BME280;27286;47.870;19.006;2023-03-23T06:41:36;99156.53;;;7.20;87.48
41573;BME280;27286;47.870;19.006;2023-03-23T06:44:02;99163.19;;;7.53;87.02
41573;BME280;27286;47.870;19.006;2023-03-23T06:46:27;99155.34;;;7.81;85.68
41573;BME280;27286;47.870;19.006;2023-03-23T06:48:54;99162.13;;;8.10;84.51
41573;BME280;27286;47.870;19.006;2023-03-23T06:51:20;99162.69;;;8.43;82.68
41573;BME280;27286;47.870;19.006;2023-03-23T06:53:46;99166.75;;;8.72;81.06
41573;BME280;27286;47.870;19.006;2023-03-23T06:56:12;99164.38;;;9.12;78.67
41573;BME280;27286;47.870;19.006;2023-03-23T06:58:39;99163.50;;;10.55;71.81
41573;BME280;27286;47.870;19.006;2023-03-23T07:01:05;99170.19;;;12.54;62.53
41573;BME280;27286;47.870;19.006;2023-03-23T07:03:31;99166.19;;;13.87;54.83
41573;BME280;27286;47.870;19.006;2023-03-23T07:05:57;99158.66;;;14.96;51.66
41573;BME280;27286;47.870;19.006;2023-03-23T07:08:23;99170.78;;;15.66;48.20
41573;BME280;27286;47.870;19.006;2023-03-23T07:10:53;99166.94;;;16.73;44.82
41573;BME280;27286;47.870;19.006;2023-03-23T07:13:19;99165.75;;;17.61;42.43
41573;BME280;27286;47.870;19.006;2023-03-23T07:15:44;99159.22;;;18.24;40.80
41573;BME280;27286;47.870;19.006;2023-03-23T07:18:10;99168.22;;;18.44;38.74
41573;BME280;27286;47.870;19.006;2023-03-23T07:20:36;99165.94;;;19.07;38.28
41573;BME280;27286;47.870;19.006;2023-03-23T07:23:02;99166.78;;;20.03;36.74
41573;BME280;27286;47.870;19.006;2023-03-23T07:25:28;99163.13;;;20.46;35.39
41573;BME280;27286;47.870;19.006;2023-03-23T07:27:53;99161.97;;;20.69;34.46
41573;BME280;27286;47.870;19.006;2023-03-23T07:30:19;99158.03;;;21.14;35.54
41573;BME280;27286;47.870;19.006;2023-03-23T07:32:44;99172.19;;;22.01;33.20
41573;BME280;27286;47.870;19.006;2023-03-23T07:35:10;99169.94;;;21.97;32.24
41573;BME280;27286;47.870;19.006;2023-03-23T07:37:36;99166.75;;;22.49;31.29
41573;BME280;27286;47.870;19.006;2023-03-23T07:40:03;99159.50;;;22.89;31.33
41573;BME280;27286;47.870;19.006;2023-03-23T07:42:41;99166.44;;;23.62;29.40
41573;BME280;27286;47.870;19.006;2023-03-23T07:45:08;99160.91;;;23.99;29.11
41573;BME280;27286;47.870;19.006;2023-03-23T07:47:34;99167.84;;;23.92;28.89
41573;BME280;27286;47.870;19.006;2023-03-23T07:49:59;99158.97;;;23.84;28.88
41573;BME280;27286;47.870;19.006;2023-03-23T07:52:25;99162.63;;;23.65;29.38
41573;BME280;27286;47.870;19.006;2023-03-23T07:54:50;99157.91;;;23.23;29.86
41573;BME280;27286;47.870;19.006;2023-03-23T07:57:16;99160.06;;;23.10;29.62
41573;BME280;27286;47.870;19.006;2023-03-23T07:59:41;99155.63;;;23.46;29.90
41573;BME280;27286;47.870;19.006;2023-03-23T08:02:08;99152.22;;;23.54;29.49
41573;BME280;27286;47.870;19.006;2023-03-23T08:04:34;99159.19;;;24.16;30.22
41573;BME280;27286;47.870;19.006;2023-03-23T08:07:03;99159.63;;;24.55;29.18
41573;BME280;27286;47.870;19.006;2023-03-23T08:09:30;99164.06;;;25.31;28.98
41573;BME280;27286;47.870;19.006;2023-03-23T08:11:55;99168.59;;;26.20;31.68
41573;BME280;27286;47.870;19.006;2023-03-23T08:14:21;99162.97;;;26.40;28.93
41573;BME280;27286;47.870;19.006;2023-03-23T08:16:47;99161.28;;;26.38;29.78
41573;BME280;27286;47.870;19.006;2023-03-23T08:19:13;99170.97;;;26.23;28.48
41573;BME280;27286;47.870;19.006;2023-03-23T08:21:39;99167.00;;;26.75;27.77
41573;BME280;27286;47.870;19.006;2023-03-23T08:24:05;99168.44;;;26.30;28.34
41573;BME280;27286;47.870;19.006;2023-03-23T08:26:31;99171.66;;;26.09;27.01
41573;BME280;27286;47.870;19.006;2023-03-23T08:28:56;99162.25;;;25.24;28.93
41573;BME280;27286;47.870;19.006;2023-03-23T08:31:23;99165.00;;;26.05;28.60
41573;BME280;27286;47.870;19.006;2023-03-23T08:33:48;99170.28;;;26.29;27.07
41573;BME280;27286;47.870;19.006;2023-03-23T08:36:14;99158.25;;;25.19;27.20
41573;BME280;27286;47.870;19.006;2023-03-23T08:38:40;99165.84;;;26.69;26.60
41573;BME280;27286;47.870;19.006;2023-03-23T08:41:06;99163.94;;;26.47;26.66
41573;BME280;27286;47.870;19.006;2023-03-23T08:43:33;99158.44;;;25.42;27.25
41573;BME280;27286;47.870;19.006;2023-03-23T08:45:59;99150.16;;;24.53;28.71
41573;BME280;27286;47.870;19.006;2023-03-23T08:48:25;99154.56;;;24.78;27.98
41573;BME280;27286;47.870;19.006;2023-03-23T08:50:50;99150.78;;;25.47;26.60
41573;BME280;27286;47.870;19.006;2023-03-23T08:53:18;99149.28;;;25.45;27.52
41573;BME280;27286;47.870;19.006;2023-03-23T08:55:43;99151.66;;;26.05;26.94
41573;BME280;27286;47.870;19.006;2023-03-23T08:58:09;99149.94;;;25.47;26.30
41573;BME280;27286;47.870;19.006;2023-03-23T09:00:35;99155.25;;;24.80;26.70
41573;BME280;27286;47.870;19.006;2023-03-23T09:03:01;99153.97;;;24.93;27.05
41573;BME280;27286;47.870;19.006;2023-03-23T09:05:28;99156.63;;;26.80;24.91
41573;BME280;27286;47.870;19.006;2023-03-23T09:07:55;99147.91;;;26.86;24.35
41573;BME280;27286;47.870;19.006;2023-03-23T09:10:25;99143.59;;;27.24;24.54
41573;BME280;27286;47.870;19.006;2023-03-23T09:12:51;99144.28;;;27.72;22.67
41573;BME280;27286;47.870;19.006;2023-03-23T09:15:17;99153.13;;;28.10;22.37
41573;BME280;27286;47.870;19.006;2023-03-23T09:17:48;99142.97;;;28.05;22.95
41573;BME280;27286;47.870;19.006;2023-03-23T09:20:17;99154.69;;;27.58;23.65
41573;BME280;27286;47.870;19.006;2023-03-23T09:22:47;99151.53;;;27.01;23.82
41573;BME280;27286;47.870;19.006;2023-03-23T09:25:16;99157.56;;;26.56;24.66
41573;BME280;27286;47.870;19.006;2023-03-23T09:27:44;99160.94;;;26.89;24.49
41573;BME280;27286;47.870;19.006;2023-03-23T09:30:13;99156.59;;;26.32;24.62
41573;BME280;27286;47.870;19.006;2023-03-23T09:32:40;99148.63;;;25.67;25.85
41573;BME280;27286;47.870;19.006;2023-03-23T09:35:08;99140.28;;;24.79;26.24
41573;BME280;27286;47.870;19.006;2023-03-23T09:37:37;99139.75;;;24.76;27.15
41573;BME280;27286;47.870;19.006;2023-03-23T09:40:04;99137.22;;;25.08;27.01
41573;BME280;27286;47.870;19.006;2023-03-23T09:42:40;99134.63;;;25.49;25.48
41573;BME280;27286;47.870;19.006;2023-03-23T09:48:31;99137.59;;;25.30;26.40
41573;BME280;27286;47.870;19.006;2023-03-23T09:50:55;99124.19;;;24.97;27.07
41573;BME280;27286;47.870;19.006;2023-03-23T09:53:33;99133.75;;;23.34;28.64
41573;BME280;27286;47.870;19.006;2023-03-23T09:56:08;99127.97;;;22.86;29.14
41573;BME280;27286;47.870;19.006;2023-03-23T09:58:45;99127.03;;;21.74;30.46
41573;BME280;27286;47.870;19.006;2023-03-23T10:01:21;99133.94;;;21.07;32.38
41573;BME280;27286;47.870;19.006;2023-03-23T10:03:55;99132.59;;;20.32;32.81
41573;BME280;27286;47.870;19.006;2023-03-23T10:06:23;99137.38;;;19.97;33.65
41573;BME280;27286;47.870;19.006;2023-03-23T10:08:54;99125.41;;;19.72;34.04
41573;BME280;27286;47.870;19.006;2023-03-23T10:14:43;99125.63;;;21.31;32.66
41573;BME280;27286;47.870;19.006;2023-03-23T10:17:14;99114.81;;;22.19;31.59
41573;BME280;27286;47.870;19.006;2023-03-23T10:22:12;99114.19;;;21.88;31.35
41573;BME280;27286;47.870;19.006;2023-03-23T10:30:44;99118.72;;;20.99;32.62
41573;BME280;27286;47.870;19.006;2023-03-23T10:33:18;99115.84;;;21.22;31.75
41573;BME280;27286;47.870;19.006;2023-03-23T10:36:23;99117.84;;;21.68;31.20
41573;BME280;27286;47.870;19.006;2023-03-23T10:39:00;99118.94;;;21.17;32.88
41573;BME280;27286;47.870;19.006;2023-03-23T10:41:29;99115.88;;;21.31;31.87
41573;BME280;27286;47.870;19.006;2023-03-23T10:43:55;99110.69;;;21.11;32.66
41573;BME280;27286;47.870;19.006;2023-03-23T10:46:56;99102.81;;;20.70;33.74
41573;BME280;27286;47.870;19.006;2023-03-23T10:49:36;99101.53;;;20.65;32.31
41573;BME280;27286;47.870;19.006;2023-03-23T10:54:57;99096.78;;;19.98;33.83
41573;BME280;27286;47.870;19.006;2023-03-23T10:57:29;99096.72;;;19.88;33.87
41573;BME280;27286;47.870;19.006;2023-03-23T11:00:00;99094.34;;;20.36;33.28
41573;BME280;27286;47.870;19.006;2023-03-23T11:02:27;99084.16;;;20.72;33.12
41573;BME280;27286;47.870;19.006;2023-03-23T11:04:56;99086.56;;;20.85;32.20
41573;BME280;27286;47.870;19.006;2023-03-23T11:07:31;99093.28;;;21.08;32.52
41573;BME280;27286;47.870;19.006;2023-03-23T11:10:21;99096.66;;;21.58;30.64
41573;BME280;27286;47.870;19.006;2023-03-23T11:12:47;99093.81;;;21.89;31.04
41573;BME280;27286;47.870;19.006;2023-03-23T11:18:20;99094.91;;;20.90;31.44
41573;BME280;27286;47.870;19.006;2023-03-23T11:20:54;99088.25;;;21.15;32.03
41573;BME280;27286;47.870;19.006;2023-03-23T11:23:42;99084.22;;;22.35;29.98
41573;BME280;27286;47.870;19.006;2023-03-23T11:28:36;99075.50;;;25.29;26.22
41573;BME280;27286;47.870;19.006;2023-03-23T11:31:05;99066.50;;;26.34;24.45
41573;BME280;27286;47.870;19.006;2023-03-23T11:34:00;99062.81;;;27.14;23.61
41573;BME280;27286;47.870;19.006;2023-03-23T11:36:36;99052.94;;;28.78;21.51
41573;BME280;27286;47.870;19.006;2023-03-23T11:39:25;99049.38;;;29.07;21.09
41573;BME280;27286;47.870;19.006;2023-03-23T11:41:49;99040.03;;;28.67;21.07
41573;BME280;27286;47.870;19.006;2023-03-23T11:44:15;99036.63;;;28.58;21.25
41573;BME280;27286;47.870;19.006;2023-03-23T11:46:46;99037.47;;;30.21;19.96
41573;BME280;27286;47.870;19.006;2023-03-23T11:49:27;99029.00;;;30.72;19.59
41573;BME280;27286;47.870;19.006;2023-03-23T11:52:11;99020.00;;;30.93;19.81
41573;BME280;27286;47.870;19.006;2023-03-23T11:54:43;99021.69;;;31.21;19.45
41573;BME280;27286;47.870;19.006;2023-03-23T11:57:12;99018.81;;;30.54;18.95
41573;BME280;27286;47.870;19.006;2023-03-23T11:59:39;99023.19;;;29.86;20.48
41573;BME280;27286;47.870;19.006;2023-03-23T12:15:42;99013.19;;;24.89;27.35
41573;BME280;27286;47.870;19.006;2023-03-23T12:26:30;99008.22;;;26.15;25.06
41573;BME280;27286;47.870;19.006;2023-03-23T12:44:47;99003.34;;;22.11;30.86
41573;BME280;27286;47.870;19.006;2023-03-23T12:49:48;99001.44;;;21.94;33.19
41573;BME280;27286;47.870;19.006;2023-03-23T12:52:33;99001.25;;;22.15;32.58
41573;BME280;27286;47.870;19.006;2023-03-23T12:55:20;98998.66;;;22.05;32.29
41573;BME280;27286;47.870;19.006;2023-03-23T12:58:07;99002.91;;;21.79;32.18
41573;BME280;27286;47.870;19.006;2023-03-23T13:00:56;98993.44;;;21.67;33.07
41573;BME280;27286;47.870;19.006;2023-03-23T13:03:28;98993.19;;;21.70;32.12
41573;BME280;27286;47.870;19.006;2023-03-23T13:06:21;98993.19;;;21.60;32.02
41573;BME280;27286;47.870;19.006;2023-03-23T13:09:10;98981.91;;;21.58;32.81
41573;BME280;27286;47.870;19.006;2023-03-23T13:11:40;98979.97;;;21.60;32.39
41573;BME280;27286;47.870;19.006;2023-03-23T13:17:01;98965.34;;;21.56;31.34
41573;BME280;27286;47.870;19.006;2023-03-23T13:20:01;98964.66;;;21.44;32.84
41573;BME280;27286;47.870;19.006;2023-03-23T13:22:42;98956.16;;;21.50;32.73
41573;BME280;27286;47.870;19.006;2023-03-23T13:28:00;98942.94;;;21.31;31.79
41573;BME280;27286;47.870;19.006;2023-03-23T13:30:26;98941.97;;;21.32;32.80
41573;BME280;27286;47.870;19.006;2023-03-23T13:33:02;98956.38;;;21.00;32.55
41573;BME280;27286;47.870;19.006;2023-03-23T13:35:32;98952.75;;;21.01;32.72
41573;BME280;27286;47.870;19.006;2023-03-23T13:37:58;98957.47;;;20.88;32.94
41573;BME280;27286;47.870;19.006;2023-03-23T13:40:26;98952.19;;;20.88;33.53
41573;BME280;27286;47.870;19.006;2023-03-23T13:42:55;98944.25;;;20.88;33.00
41573;BME280;27286;47.870;19.006;2023-03-23T13:48:04;98942.66;;;21.15;33.90
41573;BME280;27286;47.870;19.006;2023-03-23T13:50:44;98938.34;;;21.23;32.67
41573;BME280;27286;47.870;19.006;2023-03-23T13:53:21;98929.72;;;21.12;32.77
41573;BME280;27286;47.870;19.006;2023-03-23T13:55:52;98938.97;;;20.88;32.70
41573;BME280;27286;47.870;19.006;2023-03-23T13:58:28;98933.41;;;20.72;32.70
41573;BME280;27286;47.870;19.006;2023-03-23T14:03:42;98927.81;;;20.75;33.26
41573;BME280;27286;47.870;19.006;2023-03-23T14:06:17;98926.59;;;20.69;32.34
41573;BME280;27286;47.870;19.006;2023-03-23T14:08:47;98927.53;;;20.59;32.32
41573;BME280;27286;47.870;19.006;2023-03-23T14:16:17;98919.47;;;20.51;33.63
41573;BME280;27286;47.870;19.006;2023-03-23T14:19:03;98923.78;;;20.71;34.62
41573;BME280;27286;47.870;19.006;2023-03-23T14:21:40;98914.88;;;20.72;33.53
41573;BME280;27286;47.870;19.006;2023-03-23T14:24:11;98926.16;;;20.74;33.24
41573;BME280;27286;47.870;19.006;2023-03-23T14:26:38;98917.09;;;20.77;33.96
41573;BME280;27286;47.870;19.006;2023-03-23T14:29:05;98921.00;;;20.72;33.41
41573;BME280;27286;47.870;19.006;2023-03-23T14:31:32;98916.00;;;20.60;33.47
41573;BME280;27286;47.870;19.006;2023-03-23T14:34:02;98916.13;;;20.49;33.76
41573;BME280;27286;47.870;19.006;2023-03-23T14:36:30;98916.25;;;20.37;34.86
41573;BME280;27286;47.870;19.006;2023-03-23T14:39:25;98915.50;;;20.26;34.85
41573;BME280;27286;47.870;19.006;2023-03-23T14:41:53;98919.69;;;20.28;34.99
41573;BME280;27286;47.870;19.006;2023-03-23T14:44:30;98914.69;;;20.25;34.45
41573;BME280;27286;47.870;19.006;2023-03-23T14:47:04;98908.81;;;20.12;35.27